createdAt,value
2018-09-01T00:00:13.351Z,15.31
2018-09-01T00:02:41.636Z,15.08
2018-09-01T00:05:09.969Z,15.07
2018-09-01T00:07:38.256Z,15.06
2018-09-01T00:10:06.574Z,15.20
2018-09-01T00:12:34.917Z,15.26
2018-09-01T00:15:03.198Z,15.29
2018-09-01T00:17:31.989Z,15.38
2018-09-01T00:20:01.637Z,15.49
2018-09-01T00:22:30.367Z,15.68
2018-09-01T00:24:58.746Z,15.77
2018-09-01T00:27:27.117Z,15.75
2018-09-01T00:29:55.405Z,15.62
2018-09-01T00:32:23.685Z,15.67
2018-09-01T00:34:52.413Z,15.72
2018-09-01T00:37:25.993Z,15.72
2018-09-01T00:39:54.246Z,15.76
2018-09-01T00:42:22.631Z,15.80
2018-09-01T00:44:50.913Z,15.79
2018-09-01T00:47:19.225Z,15.83
2018-09-01T00:49:48.602Z,15.91
2018-09-01T00:52:16.855Z,15.94
2018-09-01T00:54:45.812Z,16.00
2018-09-01T00:57:15.146Z,15.98
2018-09-01T00:59:43.413Z,16.02
2018-09-01T01:02:11.690Z,15.96
2018-09-01T01:04:40.094Z,15.95
2018-09-01T01:07:08.435Z,15.90
2018-09-01T01:09:37.829Z,15.92
2018-09-01T01:12:06.125Z,15.81
2018-09-01T01:14:34.447Z,15.65
2018-09-01T01:17:02.780Z,15.61
2018-09-01T01:19:31.077Z,15.69
2018-09-01T01:21:59.368Z,15.69
2018-09-01T01:24:27.610Z,15.65
2018-09-01T01:26:56.461Z,15.56
2018-09-01T01:29:26.032Z,15.44
2018-09-01T01:31:54.534Z,15.48
2018-09-01T01:34:23.193Z,15.49
2018-09-01T01:36:51.489Z,15.49
2018-09-01T01:39:19.729Z,15.48
2018-09-01T01:41:49.000Z,15.55
2018-09-01T01:44:18.303Z,15.47
2018-09-01T01:46:46.601Z,15.44
2018-09-01T01:49:14.837Z,15.34
2018-09-01T01:51:43.130Z,15.38
2018-09-01T01:54:12.554Z,15.36
2018-09-01T01:56:40.805Z,15.36
2018-09-01T01:59:09.091Z,15.19
2018-09-01T02:01:37.356Z,15.10
2018-09-01T02:04:06.717Z,15.12
2018-09-01T02:06:34.956Z,14.96
2018-09-01T02:09:04.206Z,14.86
2018-09-01T02:11:32.613Z,15.02
2018-09-01T02:14:01.945Z,15.00
2018-09-01T02:16:30.185Z,14.97
2018-09-01T02:18:58.460Z,14.98
2018-09-01T02:21:26.712Z,14.97
2018-09-01T02:23:54.986Z,14.93
2018-09-01T02:26:23.307Z,14.99
2018-09-01T02:28:51.581Z,14.79
2018-09-01T02:31:19.945Z,14.62
2018-09-01T02:33:48.227Z,14.69
2018-09-01T02:36:16.478Z,14.71
2018-09-01T02:38:44.752Z,14.75
2018-09-01T02:41:13.029Z,14.77
2018-09-01T02:43:42.425Z,14.79
2018-09-01T02:46:10.692Z,14.84
2018-09-01T02:48:40.066Z,14.78
2018-09-01T02:51:08.353Z,14.80
2018-09-01T02:53:36.604Z,14.83
2018-09-01T02:56:05.162Z,14.76
2018-09-01T02:58:33.445Z,14.83
2018-09-01T03:01:06.982Z,14.98
2018-09-01T03:03:35.237Z,14.83
2018-09-01T03:06:04.661Z,14.65
2018-09-01T03:08:32.929Z,14.58
2018-09-01T03:11:01.256Z,14.62
2018-09-01T03:13:30.729Z,14.59
2018-09-01T03:15:59.341Z,14.60
2018-09-01T03:18:27.609Z,14.55
2018-09-01T03:20:55.909Z,14.56
2018-09-01T03:23:24.161Z,14.45
2018-09-01T03:25:52.469Z,14.36
2018-09-01T03:28:21.823Z,14.24
2018-09-01T03:30:50.103Z,14.22
2018-09-01T03:33:18.422Z,14.26
2018-09-01T03:35:46.708Z,14.27
2018-09-01T03:38:15.027Z,14.21
2018-09-01T03:40:44.467Z,14.18
2018-09-01T03:43:12.758Z,14.09
2018-09-01T03:45:41.004Z,14.06
2018-09-01T03:48:09.330Z,14.09
2018-09-01T03:50:37.590Z,14.00
2018-09-01T03:53:05.925Z,13.91
2018-09-01T03:55:34.217Z,13.89
2018-09-01T03:58:02.825Z,13.95
2018-09-01T04:00:31.136Z,13.91
2018-09-01T04:02:59.429Z,13.85
2018-09-01T04:05:28.801Z,13.80
2018-09-01T04:07:57.105Z,13.88
2018-09-01T04:10:25.400Z,13.90
2018-09-01T04:12:53.744Z,13.80
2018-09-01T04:15:23.035Z,13.54
2018-09-01T04:17:51.329Z,13.39
2018-09-01T04:20:19.617Z,13.32
2018-09-01T04:22:47.922Z,13.23
2018-09-01T04:25:16.225Z,13.18
2018-09-01T04:27:44.533Z,13.33
2018-09-01T04:30:12.887Z,13.43
2018-09-01T04:32:42.228Z,13.50
2018-09-01T04:35:10.569Z,13.45
2018-09-01T04:37:38.869Z,13.44
2018-09-01T04:40:07.192Z,13.58
2018-09-01T04:42:35.469Z,13.54
2018-09-01T04:45:03.793Z,13.71
2018-09-01T04:47:32.069Z,13.85
2018-09-01T04:50:00.389Z,14.00
2018-09-01T04:52:28.677Z,14.02
2018-09-01T04:54:57.026Z,14.04
2018-09-01T04:57:25.361Z,14.12
2018-09-01T04:59:53.679Z,14.16
2018-09-01T05:02:21.945Z,14.25
2018-09-01T05:04:50.247Z,14.28
2018-09-01T05:07:18.533Z,14.33
2018-09-01T05:09:46.874Z,14.44
2018-09-01T05:12:15.853Z,14.50
2018-09-01T05:14:44.223Z,14.56
2018-09-01T05:17:12.596Z,14.44
2018-09-01T05:19:40.938Z,14.37
2018-09-01T05:22:09.233Z,14.49
2018-09-01T05:24:37.538Z,14.62
2018-09-01T05:27:06.157Z,14.76
2018-09-01T05:29:34.509Z,14.85
2018-09-01T05:32:02.830Z,14.87
2018-09-01T05:34:32.153Z,15.03
2018-09-01T05:37:00.455Z,15.03
2018-09-01T05:39:28.827Z,15.07
2018-09-01T05:41:57.145Z,15.18
2018-09-01T05:44:26.513Z,15.26
2018-09-01T05:46:54.881Z,15.27
2018-09-01T05:49:23.241Z,15.39
2018-09-01T05:51:51.567Z,15.20
2018-09-01T05:54:19.906Z,15.08
2018-09-01T05:56:48.199Z,15.15
2018-09-01T05:59:16.537Z,15.29
2018-09-01T06:01:44.959Z,15.40
2018-09-01T06:04:13.236Z,15.49
2018-09-01T06:06:41.553Z,15.63
2018-09-01T06:09:10.439Z,15.77
2018-09-01T06:11:39.846Z,15.79
2018-09-01T06:14:08.705Z,15.60
2018-09-01T06:16:37.405Z,15.82
2018-09-01T06:19:05.692Z,15.90
2018-09-01T06:21:34.265Z,16.10
2018-09-01T06:24:02.736Z,16.31
2018-09-01T06:26:30.908Z,16.39
2018-09-01T06:29:16.260Z,16.61
2018-09-01T06:31:50.069Z,16.64
2018-09-01T06:34:18.376Z,16.81
2018-09-01T06:36:46.754Z,16.95
2018-09-01T06:39:15.066Z,17.00
2018-09-01T06:41:43.365Z,17.26
2018-09-01T06:44:11.757Z,17.44
2018-09-01T06:46:40.051Z,17.59
2018-09-01T06:49:08.352Z,18.00
2018-09-01T06:51:37.074Z,18.55
2018-09-01T06:54:06.465Z,18.83
2018-09-01T06:56:34.860Z,18.05
2018-09-01T06:59:03.162Z,17.80
2018-09-01T07:01:32.553Z,18.02
2018-09-01T07:04:00.854Z,17.88
2018-09-01T07:06:29.168Z,17.88
2018-09-01T07:08:57.473Z,18.23
2018-09-01T07:11:25.876Z,18.40
2018-09-01T07:13:54.167Z,18.68
2018-09-01T07:16:22.498Z,18.55
2018-09-01T07:18:50.801Z,18.50
2018-09-01T07:21:19.146Z,18.67
2018-09-01T07:23:47.437Z,18.59
2018-09-01T07:26:15.713Z,18.28
2018-09-01T07:28:44.013Z,18.20
2018-09-01T07:31:12.583Z,18.30
2018-09-01T07:33:40.629Z,18.40
2018-09-01T07:36:12.365Z,18.59
2018-09-01T07:38:40.663Z,18.73
2018-09-01T07:41:08.936Z,19.17
2018-09-01T07:43:37.233Z,19.15
2018-09-01T07:46:05.504Z,19.15
2018-09-01T07:48:33.885Z,19.25
2018-09-01T07:51:02.295Z,19.28
2018-09-01T07:53:30.614Z,19.66
2018-09-01T07:56:00.115Z,19.22
2018-09-01T07:58:28.309Z,20.05
2018-09-01T08:00:57.669Z,19.89
2018-09-01T08:03:27.107Z,19.68
2018-09-01T08:05:55.456Z,20.12
2018-09-01T08:08:23.733Z,19.88
2018-09-01T08:10:52.081Z,20.23
2018-09-01T08:13:20.361Z,20.49
2018-09-01T08:15:49.838Z,19.99
2018-09-01T08:18:19.397Z,19.77
2018-09-01T08:20:47.821Z,20.18
2018-09-01T08:23:16.140Z,20.24
2018-09-01T08:25:45.571Z,20.10
2018-09-01T08:28:14.917Z,19.74
2018-09-01T08:30:43.212Z,19.70
2018-09-01T08:33:11.537Z,19.22
2018-09-01T08:35:39.977Z,18.89
2018-09-01T08:38:08.254Z,19.07
2018-09-01T08:40:36.534Z,19.16
2018-09-01T08:43:05.173Z,18.57
2018-09-01T08:45:33.449Z,18.77
2018-09-01T08:48:01.720Z,19.31
2018-09-01T08:50:30.129Z,20.11
2018-09-01T08:52:58.457Z,20.47
2018-09-01T08:55:26.761Z,20.63
2018-09-01T08:57:55.137Z,20.94
2018-09-01T09:00:23.403Z,21.23
2018-09-01T09:02:51.693Z,21.55
2018-09-01T09:05:19.945Z,21.94
2018-09-01T09:07:48.393Z,21.94
2018-09-01T09:10:17.738Z,21.80
2018-09-01T09:12:46.033Z,20.96
2018-09-01T09:15:14.377Z,20.59
2018-09-01T09:17:42.801Z,20.49
2018-09-01T09:20:12.062Z,20.21
2018-09-01T09:22:40.337Z,20.07
2018-09-01T09:25:08.729Z,20.58
2018-09-01T09:27:36.985Z,21.49
2018-09-01T09:30:05.607Z,21.86
2018-09-01T09:32:33.893Z,21.53
2018-09-01T09:35:02.249Z,21.59
2018-09-01T09:37:30.516Z,21.04
2018-09-01T09:39:58.898Z,20.79
2018-09-01T09:42:27.169Z,20.61
2018-09-01T09:44:55.572Z,20.49
2018-09-01T09:47:24.045Z,20.12
2018-09-01T09:49:52.384Z,20.65
2018-09-01T09:52:20.772Z,21.31
2018-09-01T09:54:49.203Z,21.63
2018-09-01T09:57:17.562Z,21.27
2018-09-01T09:59:45.857Z,20.93
2018-09-01T10:02:14.141Z,21.46
2018-09-01T10:04:42.441Z,21.90
2018-09-01T10:07:10.745Z,21.63
2018-09-01T10:09:39.137Z,21.43
2018-09-01T10:12:07.405Z,21.12
2018-09-01T10:14:35.671Z,20.84
2018-09-01T10:17:03.965Z,21.53
2018-09-01T10:19:32.244Z,21.95
2018-09-01T10:22:00.541Z,22.01
2018-09-01T10:24:28.809Z,22.16
2018-09-01T10:26:58.284Z,21.78
2018-09-01T10:29:26.484Z,22.10
2018-09-01T10:31:54.776Z,22.35
2018-09-01T10:34:23.049Z,21.60
2018-09-01T10:36:51.344Z,21.35
2018-09-01T10:39:19.601Z,20.95
2018-09-01T10:41:47.934Z,20.93
2018-09-01T10:44:16.254Z,21.08
2018-09-01T10:46:44.578Z,21.31
2018-09-01T10:49:12.861Z,20.50
2018-09-01T10:51:42.204Z,20.38
2018-09-01T10:54:10.538Z,21.04
2018-09-01T10:56:38.830Z,21.21
2018-09-01T10:59:07.294Z,20.74
2018-09-01T11:01:35.441Z,20.51
2018-09-01T11:04:03.710Z,20.76
2018-09-01T11:06:31.997Z,21.10
2018-09-01T11:09:00.260Z,20.82
2018-09-01T11:11:28.545Z,21.10
2018-09-01T11:13:56.821Z,21.08
2018-09-01T11:16:25.129Z,21.05
2018-09-01T11:18:53.393Z,21.19
2018-09-01T11:21:21.643Z,21.09
2018-09-01T11:23:49.952Z,21.00
2018-09-01T11:26:18.246Z,21.08
2018-09-01T11:28:46.550Z,20.80
2018-09-01T11:31:14.842Z,20.59
2018-09-01T11:33:43.172Z,20.31
2018-09-01T11:36:11.453Z,20.35
2018-09-01T11:38:39.776Z,20.71
2018-09-01T11:41:08.235Z,20.90
2018-09-01T11:43:36.561Z,20.74
2018-09-01T11:46:06.068Z,21.20
2018-09-01T11:48:34.726Z,21.22
2018-09-01T11:51:02.997Z,21.30
2018-09-01T11:53:31.350Z,21.41
2018-09-01T11:55:59.681Z,21.46
2018-09-01T11:58:28.015Z,20.87
2018-09-01T12:00:57.459Z,20.96
2018-09-01T12:03:26.818Z,20.90
2018-09-01T12:05:56.160Z,20.37
2018-09-01T12:08:25.570Z,20.74
2018-09-01T12:10:54.157Z,21.01
2018-09-01T12:13:23.510Z,20.69
2018-09-01T12:15:51.792Z,20.59
2018-09-01T12:18:20.058Z,20.75
2018-09-01T12:20:50.348Z,20.99
2018-09-01T12:23:18.614Z,20.81
2018-09-01T12:25:47.966Z,20.97
2018-09-01T12:28:16.281Z,21.17
2018-09-01T12:30:45.705Z,21.07
2018-09-01T12:33:14.065Z,21.25
2018-09-01T12:35:42.376Z,21.21
2018-09-01T12:38:10.658Z,21.45
2018-09-01T12:40:39.391Z,20.97
2018-09-01T12:43:08.997Z,21.00
2018-09-01T12:45:40.849Z,21.14
2018-09-01T12:48:09.149Z,21.40
2018-09-01T12:50:39.562Z,21.15
2018-09-01T12:53:07.906Z,21.33
2018-09-01T12:55:38.213Z,20.95
2018-09-01T12:58:06.533Z,21.34
2018-09-01T13:00:34.818Z,21.09
2018-09-01T13:03:03.285Z,21.21
2018-09-01T13:05:31.724Z,21.35
2018-09-01T13:08:00.158Z,21.51
2018-09-01T13:10:28.433Z,21.74
2018-09-01T13:12:58.877Z,21.46
2018-09-01T13:15:27.181Z,21.51
2018-09-01T13:17:55.517Z,21.38
2018-09-01T13:20:23.785Z,21.32
2018-09-01T13:22:52.114Z,21.11
2018-09-01T13:25:20.477Z,21.62
2018-09-01T13:27:48.807Z,21.53
2018-09-01T13:30:17.161Z,21.80
2018-09-01T13:32:45.485Z,23.35
2018-09-01T13:35:14.888Z,23.87
2018-09-01T13:37:45.201Z,22.94
2018-09-01T13:40:18.141Z,24.08
2018-09-01T13:42:46.390Z,23.76
2018-09-01T13:45:14.681Z,23.78
2018-09-01T13:47:42.985Z,23.61
2018-09-01T13:50:11.351Z,22.34
2018-09-01T13:52:39.701Z,22.44
2018-09-01T13:55:07.997Z,21.69
2018-09-01T13:57:36.254Z,21.68
2018-09-01T14:00:04.595Z,22.18
2018-09-01T14:02:32.894Z,22.49
2018-09-01T14:05:01.182Z,22.77
2018-09-01T14:07:29.449Z,23.18
2018-09-01T14:09:58.461Z,22.65
2018-09-01T14:12:26.770Z,21.93
2018-09-01T14:14:55.178Z,22.18
2018-09-01T14:17:23.398Z,22.00
2018-09-01T14:19:51.701Z,21.61
2018-09-01T14:22:19.994Z,22.93
2018-09-01T14:24:48.363Z,25.14
2018-09-01T14:27:16.646Z,25.70
2018-09-01T14:29:45.538Z,24.66
2018-09-01T14:32:13.806Z,23.76
2018-09-01T14:34:42.124Z,23.82
2018-09-01T14:37:10.479Z,23.44
2018-09-01T14:39:39.859Z,22.91
2018-09-01T14:42:08.142Z,23.40
2018-09-01T14:44:36.472Z,23.36
2018-09-01T14:47:05.870Z,23.19
2018-09-01T14:49:34.162Z,23.36
2018-09-01T14:52:02.473Z,23.79
2018-09-01T14:54:31.948Z,24.15
2018-09-01T14:57:00.709Z,23.70
2018-09-01T14:59:28.974Z,23.42
2018-09-01T15:01:57.267Z,23.13
2018-09-01T15:04:25.561Z,22.46
2018-09-01T15:06:54.461Z,22.24
2018-09-01T15:09:22.749Z,23.77
2018-09-01T15:11:51.125Z,23.29
2018-09-01T15:14:20.525Z,23.73
2018-09-01T15:16:48.834Z,26.10
2018-09-01T15:19:17.157Z,29.20
2018-09-01T15:21:45.477Z,29.11
2018-09-01T15:24:13.801Z,29.02
2018-09-01T15:26:42.138Z,25.35
2018-09-01T15:29:10.473Z,24.06
2018-09-01T15:31:39.859Z,25.67
2018-09-01T15:34:09.252Z,28.13
2018-09-01T15:36:37.617Z,30.41
2018-09-01T15:39:06.677Z,32.33
2018-09-01T15:41:35.013Z,29.95
2018-09-01T15:44:03.545Z,31.33
2018-09-01T15:46:31.886Z,32.03
2018-09-01T15:49:00.233Z,33.54
2018-09-01T15:51:28.506Z,33.54
2018-09-01T15:53:56.915Z,33.28
2018-09-01T15:56:25.228Z,32.85
2018-09-01T15:58:53.533Z,33.16
2018-09-01T16:01:21.834Z,32.12
2018-09-01T16:03:50.206Z,31.09
2018-09-01T16:06:19.445Z,32.19
2018-09-01T16:08:47.738Z,31.20
2018-09-01T16:11:19.665Z,32.11
2018-09-01T16:13:49.033Z,32.51
2018-09-01T16:16:17.300Z,32.88
2018-09-01T16:18:45.590Z,32.77
2018-09-01T16:21:13.942Z,31.18
2018-09-01T16:23:42.246Z,31.52
2018-09-01T16:26:10.552Z,31.31
2018-09-01T16:28:40.085Z,31.86
2018-09-01T16:31:10.397Z,31.45
2018-09-01T16:33:38.657Z,31.33
2018-09-01T16:36:06.979Z,31.65
2018-09-01T16:38:35.321Z,31.68
2018-09-01T16:41:03.802Z,30.98
2018-09-01T16:43:32.077Z,31.05
2018-09-01T16:46:01.568Z,30.90
2018-09-01T16:48:29.856Z,27.60
2018-09-01T16:50:58.181Z,25.09
2018-09-01T16:53:27.537Z,24.11
2018-09-01T16:55:55.826Z,22.68
2018-09-01T16:58:26.137Z,21.83
2018-09-01T17:00:56.618Z,21.61
2018-09-01T17:03:24.830Z,21.42
2018-09-01T17:05:53.154Z,21.29
2018-09-01T17:08:21.439Z,21.10
2018-09-01T17:10:50.904Z,21.05
2018-09-01T17:13:19.187Z,20.86
2018-09-01T17:15:47.479Z,20.79
2018-09-01T17:18:16.807Z,20.75
2018-09-01T17:20:45.157Z,20.38
2018-09-01T17:23:13.437Z,20.13
2018-09-01T17:25:41.777Z,20.13
2018-09-01T17:28:10.058Z,19.89
2018-09-01T17:30:38.461Z,19.84
2018-09-01T17:33:06.897Z,19.70
2018-09-01T17:35:35.509Z,19.63
2018-09-01T17:38:03.806Z,19.56
2018-09-01T17:40:32.061Z,19.38
2018-09-01T17:43:01.629Z,19.31
2018-09-01T17:45:29.937Z,19.30
2018-09-01T17:47:58.264Z,19.15
2018-09-01T17:50:26.561Z,19.45
2018-09-01T17:52:54.848Z,19.26
2018-09-01T17:55:23.191Z,18.94
2018-09-01T17:57:51.622Z,18.78
2018-09-01T18:00:19.921Z,18.71
2018-09-01T18:02:48.223Z,18.59
2018-09-01T18:05:16.509Z,18.45
2018-09-01T18:07:44.817Z,18.52
2018-09-01T18:11:38.553Z,18.51
2018-09-01T18:14:06.913Z,18.23
2018-09-01T18:16:35.363Z,18.25
2018-09-01T18:19:03.625Z,18.21
2018-09-01T18:21:31.926Z,18.08
2018-09-01T18:24:00.237Z,18.04
2018-09-01T18:26:28.557Z,18.03
2018-09-01T18:28:56.858Z,18.05
2018-09-01T18:31:25.142Z,18.00
2018-09-01T18:33:53.469Z,17.95
2018-09-01T18:36:22.810Z,17.87
2018-09-01T18:38:51.345Z,17.83
2018-09-01T18:41:19.678Z,17.72
2018-09-01T18:43:48.940Z,17.60
2018-09-01T18:46:17.260Z,17.47
2018-09-01T18:48:45.565Z,17.52
2018-09-01T18:51:14.015Z,17.46
2018-09-01T18:53:42.353Z,17.43
2018-09-01T18:56:10.669Z,17.34
2018-09-01T18:58:38.990Z,17.30
2018-09-01T19:01:07.307Z,17.30
2018-09-01T19:03:36.053Z,17.28
2018-09-01T19:06:04.610Z,17.23
2018-09-01T19:08:32.905Z,17.13
2018-09-01T19:11:01.206Z,17.03
2018-09-01T19:13:35.357Z,17.12
2018-09-01T19:16:03.665Z,17.01
2018-09-01T19:18:31.999Z,16.94
2018-09-01T19:21:00.604Z,16.90
2018-09-01T19:23:28.937Z,16.82
2018-09-01T19:25:57.250Z,16.80
2018-09-01T19:28:26.581Z,16.84
2018-09-01T19:30:54.901Z,16.85
2018-09-01T19:33:23.209Z,16.80
2018-09-01T19:35:51.704Z,16.71
2018-09-01T19:38:19.975Z,16.74
2018-09-01T19:40:48.415Z,16.66
2018-09-01T19:43:16.813Z,16.66
2018-09-01T19:45:45.229Z,16.58
2018-09-01T19:48:13.541Z,16.50
2018-09-01T19:50:41.915Z,16.38
2018-09-01T19:53:10.198Z,16.44
2018-09-01T19:55:38.549Z,16.47
2018-09-01T19:58:06.854Z,16.42
2018-09-01T20:00:35.129Z,16.36
2018-09-01T20:03:03.433Z,16.21
2018-09-01T20:05:31.964Z,16.22
2018-09-01T20:08:00.075Z,16.15
2018-09-01T20:10:28.369Z,16.14
2018-09-01T20:12:56.689Z,16.17
2018-09-01T20:15:24.961Z,16.21
2018-09-01T20:17:53.288Z,16.16
2018-09-01T20:20:21.681Z,16.15
2018-09-01T20:22:49.999Z,16.09
2018-09-01T20:25:18.341Z,16.09
2018-09-01T20:27:46.595Z,16.03
2018-09-01T20:30:14.865Z,16.02
2018-09-01T20:32:43.289Z,16.05
2018-09-01T20:35:16.993Z,16.10
2018-09-01T20:37:45.361Z,16.07
2018-09-01T20:40:13.625Z,16.07
2018-09-01T20:42:41.961Z,16.09
2018-09-01T20:45:10.357Z,16.14
2018-09-01T20:47:39.151Z,16.23
2018-09-01T20:50:07.502Z,16.34
2018-09-01T20:52:35.797Z,16.41
2018-09-01T20:55:04.249Z,16.50
2018-09-01T20:57:32.842Z,16.55
2018-09-01T21:00:01.161Z,16.58
2018-09-01T21:02:29.441Z,16.56
2018-09-01T21:04:57.832Z,16.59
2018-09-01T21:07:26.134Z,16.74
2018-09-01T21:09:54.437Z,16.81
2018-09-01T21:12:22.737Z,16.92
2018-09-01T21:14:51.121Z,17.00
2018-09-01T21:17:19.428Z,17.08
2018-09-01T21:19:47.726Z,17.01
2018-09-01T21:22:16.017Z,17.02
2018-09-01T21:24:44.313Z,17.02
2018-09-01T21:27:12.615Z,16.95
2018-09-01T21:29:40.910Z,17.12
2018-09-01T21:32:09.258Z,17.09
2018-09-01T21:34:37.589Z,17.11
2018-09-01T21:37:05.857Z,16.98
2018-09-01T21:39:34.395Z,16.93
2018-09-01T21:42:02.766Z,17.02
2018-09-01T21:44:31.075Z,16.98
2018-09-01T21:46:59.393Z,17.00
2018-09-01T21:49:27.799Z,16.99
2018-09-01T21:51:56.093Z,16.92
2018-09-01T21:54:24.386Z,16.93
2018-09-01T21:56:52.844Z,16.85
2018-09-01T21:59:21.245Z,16.84
2018-09-01T22:01:54.770Z,16.73
2018-09-01T22:04:23.193Z,16.78
2018-09-01T22:06:51.494Z,16.81
2018-09-01T22:09:19.843Z,16.86
2018-09-01T22:11:48.130Z,16.88
2018-09-01T22:14:16.402Z,16.97
2018-09-01T22:16:44.760Z,16.96
2018-09-01T22:19:13.056Z,16.91
2018-09-01T22:21:41.524Z,16.91
2018-09-01T22:24:09.813Z,16.99
2018-09-01T22:26:38.095Z,17.03
2018-09-01T22:29:06.437Z,16.98
2018-09-01T22:31:34.750Z,16.97
2018-09-01T22:34:03.099Z,17.06
2018-09-01T22:36:31.425Z,17.03
2018-09-01T22:38:59.754Z,17.02
2018-09-01T22:41:28.061Z,17.05
2018-09-01T22:43:57.526Z,16.89
2018-09-01T22:46:26.109Z,16.69
2018-09-01T22:48:54.406Z,16.79
2018-09-01T22:51:22.686Z,16.89
2018-09-01T22:53:51.029Z,16.95
2018-09-01T22:56:19.373Z,16.92
2018-09-01T22:58:48.660Z,16.93
2018-09-01T23:01:16.933Z,17.10
2018-09-01T23:03:45.289Z,17.05
2018-09-01T23:06:13.577Z,17.02
2018-09-01T23:08:42.915Z,17.00
2018-09-01T23:11:12.309Z,17.03
2018-09-01T23:13:40.654Z,16.97
2018-09-01T23:16:08.965Z,16.94
2018-09-01T23:18:37.313Z,16.88
2018-09-01T23:21:06.666Z,16.93
2018-09-01T23:23:35.423Z,16.84
2018-09-01T23:26:03.721Z,16.82
2018-09-01T23:28:32.086Z,16.76
2018-09-01T23:31:00.397Z,16.79
2018-09-01T23:33:28.681Z,16.77
2018-09-01T23:35:57.117Z,16.70
2018-09-01T23:38:25.814Z,16.66
2018-09-01T23:40:54.146Z,16.63
2018-09-01T23:43:22.433Z,16.59
2018-09-01T23:45:50.859Z,16.60
2018-09-01T23:48:19.275Z,16.54
2018-09-01T23:50:47.581Z,16.53
2018-09-01T23:53:16.866Z,16.40
2018-09-01T23:55:45.176Z,16.19
2018-09-01T23:58:13.450Z,16.15
